Ana Sayfa
METAR-TAF:

METAR-TAF

Havaalanları :

Brevig Mission, Alaska, Amerika Birleşik Devletleri

Enlem: 65-19-53N, Boylam: 166-27-57W, yükseklik: 11 m

Güncel hava durumu gözlemi

Rapor saat 03:56 UTC de 18 dakika önce yapıldı.
Rüzgar güneydan 8 kt
Sıcaklık -3°C
Nem 80%
Basınç 1022 hPa
Görüş mesafesi: 16.1 km
Açık gökyüzü

METAR: PFKT 010356Z AUTO 18008KT 10SM CLR M03/M06 A3019 RMK AO2 SLP225 T10331061 FZRANO

Saat: 20:14 (04:14 UTC)


TAF: eksik

4.000'den fazla havaalanı için hava durumu gözlemleri ve tahminleri (METAR ve TAF raporları).

Kullanılabilir istasyonlar harita üzerinde sarı ve kırmızı noktalarla gösterilir.

İstasyonun adını görmek için fareyi noktanın üzerinde gezdirin.

Sonrasında hava gözlem ve tahminlerini görmek için tıklayın.

Haritayı değiştirmek için: yaklaştırmak için siyah artı işaretli yeşil düğmeye ve uzaklaştırmak için de eksi işaretli düğmeye hızla tıklayın; bitişik haritalar için yeşil okları kullanın.


METAR-TAF: